Weather at Kielce Maslow Airfield

Public forecast

Using degrees Celsius for public forecast. Weather courtesy of forecast.io.

Closest aviation weather report (METAR) to Kielce Maslow Airfield

Closest report is Radom Airport, 34.7 nm (64.2 km) NNE.

2024/05/28 16:00 (retrieved 36 minutes ago)

EPRA 281600Z 12012KT 080V150 CAVOK 25/07 Q1015

Closest aviation forecast (TAF) to Kielce Maslow Airfield

Closest forecast is Kraków John Paul II International Airport, 61.0 nm (113.1 km) SW.

2024/05/28 15:36 (retrieved 60 minutes ago)

TAF EPKK 281430Z 2815/2915 08015G25KT 9999 FEW050 BECMG 2815/2817 09010KT BECMG 2817/2820 VRB02KT BECMG 2821/2823 31010KT TEMPO 2823/2903 BKN013 BECMG 2901/2904 25006KT PROB40 TEMPO 2911/2915 VRB16G30KT 3000 TSRA BKN040CB